Veghel, Netherlands
Current Conditions -  °F | °C
As of 4:55 AM on Thursday 23 Oct 2014 (Local Time) from EHVK Reporting Station
Haze Haze  
Wind Chill: 45°   Ceiling: 4600
Heat Index: 48°   Visibility: 4mi
Dew Point: 48°   Wind: 7mph
Humidity: 100%   Direction: 210°SSW
Pressure: 30.15"   Gusts: NA
Location:  51.62°N, 5.55°E
Report Text: EHVK 230255Z AUTO 21006KT 6000 BR OVC046 09/09 Q1021 WHT
Loading
Personal Weather Stations






























Interactive Weather Map
Tropical Storm Tracking
New forecast layout! Learn more

10-Day Weather Forecast

Advertisements
Track Severe Weather on mobile